sensor_id;sensor_type;location;lat;lon;timestamp;P1;durP1;ratioP1;P2;durP2;ratioP2
11743;SDS011;5929;51.906;7.674;2022-11-15T00:02:15;16.15;;;11.30;;
11743;SDS011;5929;51.906;7.674;2022-11-15T00:04:42;16.52;;;11.73;;
11743;SDS011;5929;51.906;7.674;2022-11-15T00:07:09;18.65;;;12.05;;
11743;SDS011;5929;51.906;7.674;2022-11-15T00:09:36;18.80;;;12.35;;
11743;SDS011;5929;51.906;7.674;2022-11-15T00:12:02;17.10;;;11.90;;
11743;SDS011;5929;51.906;7.674;2022-11-15T00:14:30;17.63;;;11.80;;
11743;SDS011;5929;51.906;7.674;2022-11-15T00:16:56;17.88;;;12.48;;
11743;SDS011;5929;51.906;7.674;2022-11-15T00:19:27;18.42;;;12.02;;
11743;SDS011;5929;51.906;7.674;2022-11-15T00:21:53;18.38;;;12.35;;
11743;SDS011;5929;51.906;7.674;2022-11-15T00:24:20;17.52;;;12.15;;
11743;SDS011;5929;51.906;7.674;2022-11-15T00:26:47;17.08;;;11.95;;
11743;SDS011;5929;51.906;7.674;2022-11-15T00:29:14;16.25;;;11.23;;
11743;SDS011;5929;51.906;7.674;2022-11-15T00:31:41;16.58;;;11.10;;
11743;SDS011;5929;51.906;7.674;2022-11-15T00:34:08;20.67;;;12.50;;
11743;SDS011;5929;51.906;7.674;2022-11-15T00:36:37;16.92;;;11.18;;
11743;SDS011;5929;51.906;7.674;2022-11-15T00:39:04;16.33;;;11.30;;
11743;SDS011;5929;51.906;7.674;2022-11-15T00:41:31;16.27;;;11.27;;
11743;SDS011;5929;51.906;7.674;2022-11-15T00:43:58;16.50;;;10.85;;
11743;SDS011;5929;51.906;7.674;2022-11-15T00:46:25;18.02;;;11.02;;
11743;SDS011;5929;51.906;7.674;2022-11-15T00:48:51;15.82;;;11.00;;
11743;SDS011;5929;51.906;7.674;2022-11-15T00:51:18;15.80;;;11.02;;
11743;SDS011;5929;51.906;7.674;2022-11-15T00:53:46;16.85;;;11.13;;
11743;SDS011;5929;51.906;7.674;2022-11-15T00:56:13;16.48;;;11.23;;
11743;SDS011;5929;51.906;7.674;2022-11-15T00:58:40;17.30;;;11.57;;
11743;SDS011;5929;51.906;7.674;2022-11-15T01:01:08;16.92;;;11.75;;
11743;SDS011;5929;51.906;7.674;2022-11-15T01:03:36;16.75;;;10.93;;
11743;SDS011;5929;51.906;7.674;2022-11-15T01:06:04;16.73;;;11.82;;
11743;SDS011;5929;51.906;7.674;2022-11-15T01:08:32;17.13;;;10.88;;
11743;SDS011;5929;51.906;7.674;2022-11-15T01:11:01;14.85;;;10.45;;
11743;SDS011;5929;51.906;7.674;2022-11-15T01:13:29;14.98;;;11.07;;
11743;SDS011;5929;51.906;7.674;2022-11-15T01:15:57;17.30;;;11.07;;
11743;SDS011;5929;51.906;7.674;2022-11-15T01:18:24;15.85;;;10.85;;
11743;SDS011;5929;51.906;7.674;2022-11-15T01:20:50;14.93;;;10.52;;
11743;SDS011;5929;51.906;7.674;2022-11-15T01:23:17;16.17;;;11.15;;
11743;SDS011;5929;51.906;7.674;2022-11-15T01:25:44;17.23;;;10.23;;
11743;SDS011;5929;51.906;7.674;2022-11-15T01:28:12;15.68;;;10.80;;
11743;SDS011;5929;51.906;7.674;2022-11-15T01:30:39;20.02;;;10.00;;
11743;SDS011;5929;51.906;7.674;2022-11-15T01:33:06;15.13;;;10.02;;
11743;SDS011;5929;51.906;7.674;2022-11-15T01:35:33;15.00;;;10.13;;
11743;SDS011;5929;51.906;7.674;2022-11-15T01:38:04;15.20;;;10.40;;
11743;SDS011;5929;51.906;7.674;2022-11-15T01:40:30;15.35;;;9.45;;
11743;SDS011;5929;51.906;7.674;2022-11-15T01:42:57;15.48;;;10.48;;
11743;SDS011;5929;51.906;7.674;2022-11-15T01:45:25;13.27;;;9.57;;
11743;SDS011;5929;51.906;7.674;2022-11-15T01:47:53;17.45;;;10.07;;
11743;SDS011;5929;51.906;7.674;2022-11-15T01:50:22;15.20;;;10.82;;
11743;SDS011;5929;51.906;7.674;2022-11-15T01:52:53;14.90;;;9.70;;
11743;SDS011;5929;51.906;7.674;2022-11-15T01:55:21;14.70;;;10.00;;
11743;SDS011;5929;51.906;7.674;2022-11-15T01:57:53;14.27;;;9.48;;
11743;SDS011;5929;51.906;7.674;2022-11-15T02:00:23;16.73;;;9.38;;
11743;SDS011;5929;51.906;7.674;2022-11-15T02:02:51;14.98;;;9.57;;
11743;SDS011;5929;51.906;7.674;2022-11-15T02:05:18;15.43;;;10.13;;
11743;SDS011;5929;51.906;7.674;2022-11-15T02:07:45;14.85;;;9.48;;
11743;SDS011;5929;51.906;7.674;2022-11-15T02:10:14;13.93;;;10.00;;
11743;SDS011;5929;51.906;7.674;2022-11-15T02:12:44;15.82;;;9.73;;
11743;SDS011;5929;51.906;7.674;2022-11-15T02:15:11;14.82;;;10.55;;
11743;SDS011;5929;51.906;7.674;2022-11-15T02:20:39;15.75;;;10.07;;
11743;SDS011;5929;51.906;7.674;2022-11-15T02:23:27;16.58;;;9.63;;
11743;SDS011;5929;51.906;7.674;2022-11-15T02:26:22;12.95;;;8.70;;
11743;SDS011;5929;51.906;7.674;2022-11-15T02:29:06;15.23;;;9.77;;
11743;SDS011;5929;51.906;7.674;2022-11-15T02:31:39;14.98;;;9.88;;
11743;SDS011;5929;51.906;7.674;2022-11-15T02:34:15;13.88;;;9.35;;
11743;SDS011;5929;51.906;7.674;2022-11-15T02:36:48;15.27;;;9.80;;
11743;SDS011;5929;51.906;7.674;2022-11-15T02:39:26;14.45;;;9.38;;
11743;SDS011;5929;51.906;7.674;2022-11-15T02:42:00;15.88;;;9.88;;
11743;SDS011;5929;51.906;7.674;2022-11-15T02:44:50;13.02;;;9.05;;
11743;SDS011;5929;51.906;7.674;2022-11-15T02:47:19;15.07;;;10.00;;
11743;SDS011;5929;51.906;7.674;2022-11-15T02:49:47;19.73;;;10.52;;
11743;SDS011;5929;51.906;7.674;2022-11-15T02:52:16;16.08;;;9.30;;
11743;SDS011;5929;51.906;7.674;2022-11-15T02:54:52;17.67;;;10.52;;
11743;SDS011;5929;51.906;7.674;2022-11-15T02:57:20;15.52;;;9.45;;
11743;SDS011;5929;51.906;7.674;2022-11-15T03:00:01;15.98;;;9.40;;
11743;SDS011;5929;51.906;7.674;2022-11-15T03:02:36;14.20;;;10.00;;
11743;SDS011;5929;51.906;7.674;2022-11-15T03:05:18;15.07;;;9.63;;
11743;SDS011;5929;51.906;7.674;2022-11-15T03:07:51;15.60;;;10.32;;
11743;SDS011;5929;51.906;7.674;2022-11-15T03:10:24;16.80;;;10.25;;
11743;SDS011;5929;51.906;7.674;2022-11-15T03:12:56;14.98;;;10.05;;
11743;SDS011;5929;51.906;7.674;2022-11-15T03:15:29;14.52;;;9.70;;
11743;SDS011;5929;51.906;7.674;2022-11-15T03:18:00;15.20;;;9.52;;
11743;SDS011;5929;51.906;7.674;2022-11-15T03:20:31;16.73;;;9.57;;
11743;SDS011;5929;51.906;7.674;2022-11-15T03:23:01;14.02;;;9.57;;
11743;SDS011;5929;51.906;7.674;2022-11-15T03:25:30;20.20;;;10.50;;
11743;SDS011;5929;51.906;7.674;2022-11-15T03:28:01;14.45;;;9.55;;
11743;SDS011;5929;51.906;7.674;2022-11-15T03:30:31;14.00;;;9.75;;
11743;SDS011;5929;51.906;7.674;2022-11-15T03:33:02;15.25;;;10.07;;
11743;SDS011;5929;51.906;7.674;2022-11-15T03:35:32;13.63;;;9.63;;
11743;SDS011;5929;51.906;7.674;2022-11-15T03:38:05;13.15;;;9.93;;
11743;SDS011;5929;51.906;7.674;2022-11-15T03:40:41;14.07;;;9.52;;
11743;SDS011;5929;51.906;7.674;2022-11-15T03:43:13;17.35;;;10.13;;
11743;SDS011;5929;51.906;7.674;2022-11-15T03:45:49;14.23;;;9.60;;
11743;SDS011;5929;51.906;7.674;2022-11-15T03:48:22;15.70;;;9.82;;
11743;SDS011;5929;51.906;7.674;2022-11-15T03:50:51;16.08;;;10.02;;
11743;SDS011;5929;51.906;7.674;2022-11-15T03:53:18;15.13;;;9.73;;
11743;SDS011;5929;51.906;7.674;2022-11-15T03:55:44;16.33;;;10.35;;
11743;SDS011;5929;51.906;7.674;2022-11-15T03:58:11;15.20;;;10.30;;
11743;SDS011;5929;51.906;7.674;2022-11-15T04:00:38;15.27;;;9.63;;
11743;SDS011;5929;51.906;7.674;2022-11-15T04:03:05;17.13;;;10.25;;
11743;SDS011;5929;51.906;7.674;2022-11-15T04:05:34;19.42;;;10.68;;
11743;SDS011;5929;51.906;7.674;2022-11-15T04:08:01;12.82;;;8.75;;
11743;SDS011;5929;51.906;7.674;2022-11-15T04:10:28;12.32;;;8.75;;
11743;SDS011;5929;51.906;7.674;2022-11-15T04:12:54;16.33;;;10.25;;
11743;SDS011;5929;51.906;7.674;2022-11-15T04:15:22;16.73;;;10.10;;
11743;SDS011;5929;51.906;7.674;2022-11-15T04:17:50;14.73;;;9.95;;
11743;SDS011;5929;51.906;7.674;2022-11-15T04:20:21;13.27;;;9.15;;
11743;SDS011;5929;51.906;7.674;2022-11-15T04:23:12;13.00;;;9.48;;
11743;SDS011;5929;51.906;7.674;2022-11-15T04:25:59;15.30;;;9.90;;
11743;SDS011;5929;51.906;7.674;2022-11-15T04:28:27;15.55;;;9.75;;
11743;SDS011;5929;51.906;7.674;2022-11-15T04:30:55;16.30;;;9.57;;
11743;SDS011;5929;51.906;7.674;2022-11-15T04:33:22;14.95;;;9.25;;
11743;SDS011;5929;51.906;7.674;2022-11-15T04:35:49;15.02;;;9.77;;
11743;SDS011;5929;51.906;7.674;2022-11-15T04:38:31;15.70;;;8.63;;
11743;SDS011;5929;51.906;7.674;2022-11-15T04:40:58;15.45;;;9.30;;
11743;SDS011;5929;51.906;7.674;2022-11-15T04:43:24;14.50;;;9.13;;
11743;SDS011;5929;51.906;7.674;2022-11-15T04:45:51;15.70;;;9.70;;
11743;SDS011;5929;51.906;7.674;2022-11-15T04:48:18;15.77;;;9.27;;
11743;SDS011;5929;51.906;7.674;2022-11-15T04:50:47;13.05;;;8.68;;
11743;SDS011;5929;51.906;7.674;2022-11-15T04:53:13;12.77;;;8.77;;
11743;SDS011;5929;51.906;7.674;2022-11-15T04:55:45;15.18;;;9.20;;
11743;SDS011;5929;51.906;7.674;2022-11-15T04:58:12;12.00;;;8.85;;
11743;SDS011;5929;51.906;7.674;2022-11-15T05:00:39;16.48;;;8.45;;
11743;SDS011;5929;51.906;7.674;2022-11-15T05:03:05;11.48;;;7.80;;
11743;SDS011;5929;51.906;7.674;2022-11-15T05:05:50;13.80;;;8.82;;
11743;SDS011;5929;51.906;7.674;2022-11-15T05:08:17;18.35;;;9.05;;
11743;SDS011;5929;51.906;7.674;2022-11-15T05:10:45;14.18;;;9.27;;
11743;SDS011;5929;51.906;7.674;2022-11-15T05:13:13;14.90;;;9.10;;
11743;SDS011;5929;51.906;7.674;2022-11-15T05:15:40;15.07;;;9.07;;
11743;SDS011;5929;51.906;7.674;2022-11-15T05:18:07;11.95;;;8.52;;
11743;SDS011;5929;51.906;7.674;2022-11-15T05:20:34;13.48;;;9.00;;
11743;SDS011;5929;51.906;7.674;2022-11-15T05:23:00;12.95;;;9.10;;
11743;SDS011;5929;51.906;7.674;2022-11-15T05:25:27;13.15;;;9.18;;
11743;SDS011;5929;51.906;7.674;2022-11-15T05:27:58;12.48;;;8.23;;
11743;SDS011;5929;51.906;7.674;2022-11-15T05:30:25;13.55;;;8.45;;
11743;SDS011;5929;51.906;7.674;2022-11-15T05:32:52;13.50;;;8.73;;
11743;SDS011;5929;51.906;7.674;2022-11-15T05:35:21;13.75;;;8.73;;
11743;SDS011;5929;51.906;7.674;2022-11-15T05:37:56;15.57;;;9.80;;
11743;SDS011;5929;51.906;7.674;2022-11-15T05:40:23;14.13;;;9.45;;
11743;SDS011;5929;51.906;7.674;2022-11-15T05:42:52;12.05;;;8.50;;
11743;SDS011;5929;51.906;7.674;2022-11-15T05:45:21;14.55;;;8.23;;
11743;SDS011;5929;51.906;7.674;2022-11-15T05:47:47;13.45;;;9.02;;
11743;SDS011;5929;51.906;7.674;2022-11-15T05:50:16;13.05;;;8.55;;
11743;SDS011;5929;51.906;7.674;2022-11-15T05:52:44;13.80;;;8.45;;
11743;SDS011;5929;51.906;7.674;2022-11-15T05:55:15;15.43;;;8.75;;
11743;SDS011;5929;51.906;7.674;2022-11-15T05:57:42;11.32;;;7.90;;
11743;SDS011;5929;51.906;7.674;2022-11-15T06:00:09;15.18;;;8.80;;
11743;SDS011;5929;51.906;7.674;2022-11-15T06:02:38;16.10;;;8.70;;
11743;SDS011;5929;51.906;7.674;2022-11-15T06:05:05;12.25;;;8.60;;
11743;SDS011;5929;51.906;7.674;2022-11-15T06:07:32;12.70;;;8.18;;
11743;SDS011;5929;51.906;7.674;2022-11-15T06:09:59;14.05;;;9.05;;
11743;SDS011;5929;51.906;7.674;2022-11-15T06:12:28;15.15;;;8.88;;
11743;SDS011;5929;51.906;7.674;2022-11-15T06:14:55;14.25;;;9.25;;
11743;SDS011;5929;51.906;7.674;2022-11-15T06:17:21;15.88;;;9.15;;
11743;SDS011;5929;51.906;7.674;2022-11-15T06:19:50;12.80;;;9.35;;
11743;SDS011;5929;51.906;7.674;2022-11-15T06:22:16;17.30;;;10.60;;
11743;SDS011;5929;51.906;7.674;2022-11-15T06:24:43;16.58;;;9.75;;
11743;SDS011;5929;51.906;7.674;2022-11-15T06:27:10;16.15;;;10.18;;
11743;SDS011;5929;51.906;7.674;2022-11-15T06:29:37;16.73;;;10.75;;
11743;SDS011;5929;51.906;7.674;2022-11-15T06:32:04;15.00;;;10.38;;
11743;SDS011;5929;51.906;7.674;2022-11-15T06:34:31;15.55;;;10.20;;
11743;SDS011;5929;51.906;7.674;2022-11-15T06:36:59;16.58;;;11.05;;
11743;SDS011;5929;51.906;7.674;2022-11-15T06:39:26;14.32;;;10.43;;
11743;SDS011;5929;51.906;7.674;2022-11-15T06:41:53;15.18;;;10.90;;
11743;SDS011;5929;51.906;7.674;2022-11-15T06:44:19;16.50;;;10.63;;
11743;SDS011;5929;51.906;7.674;2022-11-15T06:46:46;16.13;;;9.57;;
11743;SDS011;5929;51.906;7.674;2022-11-15T06:49:13;13.63;;;9.55;;
11743;SDS011;5929;51.906;7.674;2022-11-15T06:51:40;15.93;;;9.45;;
11743;SDS011;5929;51.906;7.674;2022-11-15T06:54:08;14.07;;;9.65;;
11743;SDS011;5929;51.906;7.674;2022-11-15T06:56:35;12.88;;;9.15;;
11743;SDS011;5929;51.906;7.674;2022-11-15T06:59:01;15.68;;;10.20;;
11743;SDS011;5929;51.906;7.674;2022-11-15T07:01:28;14.38;;;9.40;;
11743;SDS011;5929;51.906;7.674;2022-11-15T07:03:55;13.27;;;9.07;;
11743;SDS011;5929;51.906;7.674;2022-11-15T07:06:22;14.05;;;9.55;;
11743;SDS011;5929;51.906;7.674;2022-11-15T07:08:49;13.63;;;8.98;;
11743;SDS011;5929;51.906;7.674;2022-11-15T07:11:17;14.02;;;10.18;;
11743;SDS011;5929;51.906;7.674;2022-11-15T07:13:44;13.60;;;9.40;;
11743;SDS011;5929;51.906;7.674;2022-11-15T07:16:10;13.77;;;9.18;;
11743;SDS011;5929;51.906;7.674;2022-11-15T07:18:38;14.32;;;9.10;;
11743;SDS011;5929;51.906;7.674;2022-11-15T07:21:07;12.25;;;9.65;;
11743;SDS011;5929;51.906;7.674;2022-11-15T07:23:35;14.07;;;9.18;;
11743;SDS011;5929;51.906;7.674;2022-11-15T07:26:03;12.90;;;9.35;;
11743;SDS011;5929;51.906;7.674;2022-11-15T07:28:32;13.02;;;8.55;;
11743;SDS011;5929;51.906;7.674;2022-11-15T07:31:01;12.95;;;7.60;;
11743;SDS011;5929;51.906;7.674;2022-11-15T07:33:28;12.18;;;7.95;;
11743;SDS011;5929;51.906;7.674;2022-11-15T07:35:58;11.20;;;7.70;;
11743;SDS011;5929;51.906;7.674;2022-11-15T07:38:26;11.15;;;7.43;;
11743;SDS011;5929;51.906;7.674;2022-11-15T07:40:55;10.73;;;7.60;;
11743;SDS011;5929;51.906;7.674;2022-11-15T07:43:23;10.63;;;7.22;;
11743;SDS011;5929;51.906;7.674;2022-11-15T07:45:51;9.70;;;6.82;;
11743;SDS011;5929;51.906;7.674;2022-11-15T07:48:20;9.40;;;6.38;;
11743;SDS011;5929;51.906;7.674;2022-11-15T07:50:47;13.18;;;6.85;;
11743;SDS011;5929;51.906;7.674;2022-11-15T07:53:14;10.32;;;6.63;;
11743;SDS011;5929;51.906;7.674;2022-11-15T07:55:44;10.13;;;5.90;;
11743;SDS011;5929;51.906;7.674;2022-11-15T07:58:11;10.57;;;5.97;;
11743;SDS011;5929;51.906;7.674;2022-11-15T08:00:38;8.73;;;5.85;;
11743;SDS011;5929;51.906;7.674;2022-11-15T08:03:07;8.23;;;5.45;;
11743;SDS011;5929;51.906;7.674;2022-11-15T08:05:35;7.90;;;5.10;;
11743;SDS011;5929;51.906;7.674;2022-11-15T08:08:03;8.05;;;4.95;;
11743;SDS011;5929;51.906;7.674;2022-11-15T08:10:31;6.97;;;4.40;;
11743;SDS011;5929;51.906;7.674;2022-11-15T08:12:58;7.68;;;4.43;;
11743;SDS011;5929;51.906;7.674;2022-11-15T08:15:26;8.02;;;4.68;;
11743;SDS011;5929;51.906;7.674;2022-11-15T08:17:54;8.00;;;4.72;;
11743;SDS011;5929;51.906;7.674;2022-11-15T08:20:23;8.07;;;4.88;;
11743;SDS011;5929;51.906;7.674;2022-11-15T08:22:50;6.88;;;4.00;;
11743;SDS011;5929;51.906;7.674;2022-11-15T08:25:17;6.93;;;3.80;;
11743;SDS011;5929;51.906;7.674;2022-11-15T08:27:44;6.63;;;3.63;;
11743;SDS011;5929;51.906;7.674;2022-11-15T08:30:11;6.00;;;3.55;;
11743;SDS011;5929;51.906;7.674;2022-11-15T08:32:38;5.55;;;3.55;;
11743;SDS011;5929;51.906;7.674;2022-11-15T08:35:06;5.43;;;3.22;;
11743;SDS011;5929;51.906;7.674;2022-11-15T08:37:34;6.05;;;3.15;;
11743;SDS011;5929;51.906;7.674;2022-11-15T08:40:02;6.57;;;3.10;;
11743;SDS011;5929;51.906;7.674;2022-11-15T08:42:29;5.70;;;3.20;;
11743;SDS011;5929;51.906;7.674;2022-11-15T08:44:56;5.30;;;2.65;;
11743;SDS011;5929;51.906;7.674;2022-11-15T08:47:23;4.75;;;2.80;;
11743;SDS011;5929;51.906;7.674;2022-11-15T08:49:50;5.43;;;2.50;;
11743;SDS011;5929;51.906;7.674;2022-11-15T08:52:17;7.55;;;2.75;;
11743;SDS011;5929;51.906;7.674;2022-11-15T08:54:46;4.22;;;2.28;;
11743;SDS011;5929;51.906;7.674;2022-11-15T08:57:13;5.70;;;2.05;;
11743;SDS011;5929;51.906;7.674;2022-11-15T08:59:39;4.82;;;2.20;;
11743;SDS011;5929;51.906;7.674;2022-11-15T09:02:10;6.40;;;2.25;;
11743;SDS011;5929;51.906;7.674;2022-11-15T09:04:39;5.82;;;2.03;;
11743;SDS011;5929;51.906;7.674;2022-11-15T09:07:06;4.07;;;2.28;;
11743;SDS011;5929;51.906;7.674;2022-11-15T09:09:33;7.25;;;2.50;;
11743;SDS011;5929;51.906;7.674;2022-11-15T09:12:01;4.75;;;1.98;;
11743;SDS011;5929;51.906;7.674;2022-11-15T09:14:28;4.00;;;1.90;;
11743;SDS011;5929;51.906;7.674;2022-11-15T09:16:55;4.35;;;1.90;;
11743;SDS011;5929;51.906;7.674;2022-11-15T09:19:22;4.32;;;1.80;;
11743;SDS011;5929;51.906;7.674;2022-11-15T09:21:49;6.05;;;2.17;;
11743;SDS011;5929;51.906;7.674;2022-11-15T09:24:16;5.30;;;1.80;;
11743;SDS011;5929;51.906;7.674;2022-11-15T09:26:43;4.65;;;1.90;;
11743;SDS011;5929;51.906;7.674;2022-11-15T09:29:11;4.45;;;2.05;;
11743;SDS011;5929;51.906;7.674;2022-11-15T09:31:38;4.55;;;1.77;;
11743;SDS011;5929;51.906;7.674;2022-11-15T09:34:05;3.90;;;1.58;;
11743;SDS011;5929;51.906;7.674;2022-11-15T09:36:32;6.22;;;1.73;;
11743;SDS011;5929;51.906;7.674;2022-11-15T09:38:58;3.97;;;1.60;;
11743;SDS011;5929;51.906;7.674;2022-11-15T09:41:33;4.63;;;1.58;;
11743;SDS011;5929;51.906;7.674;2022-11-15T09:44:29;6.93;;;1.80;;
11743;SDS011;5929;51.906;7.674;2022-11-15T09:50:08;3.75;;;1.70;;
11743;SDS011;5929;51.906;7.674;2022-11-15T09:52:37;4.95;;;2.00;;
11743;SDS011;5929;51.906;7.674;2022-11-15T09:55:08;3.88;;;1.70;;
11743;SDS011;5929;51.906;7.674;2022-11-15T09:57:39;4.13;;;1.70;;
11743;SDS011;5929;51.906;7.674;2022-11-15T10:00:15;4.88;;;1.63;;
11743;SDS011;5929;51.906;7.674;2022-11-15T10:02:49;4.10;;;1.52;;
11743;SDS011;5929;51.906;7.674;2022-11-15T10:05:25;4.50;;;1.30;;
11743;SDS011;5929;51.906;7.674;2022-11-15T10:07:57;5.63;;;1.65;;
11743;SDS011;5929;51.906;7.674;2022-11-15T10:10:31;5.43;;;1.52;;
11743;SDS011;5929;51.906;7.674;2022-11-15T10:13:03;5.38;;;1.58;;
11743;SDS011;5929;51.906;7.674;2022-11-15T10:15:35;3.80;;;1.52;;
11743;SDS011;5929;51.906;7.674;2022-11-15T10:18:08;6.68;;;1.30;;
11743;SDS011;5929;51.906;7.674;2022-11-15T10:20:44;4.93;;;1.20;;
11743;SDS011;5929;51.906;7.674;2022-11-15T10:23:14;5.47;;;1.33;;
11743;SDS011;5929;51.906;7.674;2022-11-15T10:25:43;2.95;;;1.00;;
11743;SDS011;5929;51.906;7.674;2022-11-15T10:28:12;4.50;;;1.45;;
11743;SDS011;5929;51.906;7.674;2022-11-15T10:30:43;3.63;;;1.30;;
11743;SDS011;5929;51.906;7.674;2022-11-15T10:33:30;4.75;;;1.23;;
11743;SDS011;5929;51.906;7.674;2022-11-15T10:36:14;4.38;;;1.10;;
11743;SDS011;5929;51.906;7.674;2022-11-15T10:38:54;4.35;;;1.38;;
11743;SDS011;5929;51.906;7.674;2022-11-15T10:41:22;3.70;;;1.15;;
11743;SDS011;5929;51.906;7.674;2022-11-15T10:47:05;3.47;;;1.30;;
11743;SDS011;5929;51.906;7.674;2022-11-15T10:49:53;5.63;;;1.30;;
11743;SDS011;5929;51.906;7.674;2022-11-15T10:52:22;4.70;;;1.30;;
11743;SDS011;5929;51.906;7.674;2022-11-15T10:54:51;2.85;;;0.95;;
11743;SDS011;5929;51.906;7.674;2022-11-15T10:57:21;4.82;;;0.90;;
11743;SDS011;5929;51.906;7.674;2022-11-15T10:59:50;3.45;;;1.00;;
11743;SDS011;5929;51.906;7.674;2022-11-15T11:02:31;3.70;;;0.80;;
11743;SDS011;5929;51.906;7.674;2022-11-15T11:05:00;3.08;;;0.88;;
11743;SDS011;5929;51.906;7.674;2022-11-15T11:07:28;2.50;;;0.98;;
11743;SDS011;5929;51.906;7.674;2022-11-15T11:09:57;3.33;;;0.80;;
11743;SDS011;5929;51.906;7.674;2022-11-15T11:12:29;3.00;;;0.85;;
11743;SDS011;5929;51.906;7.674;2022-11-15T11:14:57;3.15;;;1.02;;
11743;SDS011;5929;51.906;7.674;2022-11-15T11:17:32;2.65;;;0.93;;
11743;SDS011;5929;51.906;7.674;2022-11-15T11:20:10;3.20;;;0.80;;
11743;SDS011;5929;51.906;7.674;2022-11-15T11:22:48;4.47;;;1.10;;
11743;SDS011;5929;51.906;7.674;2022-11-15T11:25:32;4.07;;;0.90;;
11743;SDS011;5929;51.906;7.674;2022-11-15T11:28:05;2.80;;;0.70;;
11743;SDS011;5929;51.906;7.674;2022-11-15T11:30:49;4.05;;;1.10;;
11743;SDS011;5929;51.906;7.674;2022-11-15T11:33:26;2.95;;;1.08;;
11743;SDS011;5929;51.906;7.674;2022-11-15T11:36:03;3.60;;;0.80;;
11743;SDS011;5929;51.906;7.674;2022-11-15T11:38:39;3.65;;;0.80;;
11743;SDS011;5929;51.906;7.674;2022-11-15T11:41:18;1.80;;;0.70;;
11743;SDS011;5929;51.906;7.674;2022-11-15T11:44:07;2.38;;;0.70;;
11743;SDS011;5929;51.906;7.674;2022-11-15T11:46:47;4.00;;;0.70;;
11743;SDS011;5929;51.906;7.674;2022-11-15T11:49:20;4.65;;;0.90;;
11743;SDS011;5929;51.906;7.674;2022-11-15T11:51:53;2.72;;;1.00;;
11743;SDS011;5929;51.906;7.674;2022-11-15T11:54:27;3.45;;;1.00;;
11743;SDS011;5929;51.906;7.674;2022-11-15T11:57:02;3.42;;;0.98;;
11743;SDS011;5929;51.906;7.674;2022-11-15T11:59:42;2.72;;;0.65;;
11743;SDS011;5929;51.906;7.674;2022-11-15T12:02:15;4.25;;;1.10;;
11743;SDS011;5929;51.906;7.674;2022-11-15T12:04:49;3.95;;;0.68;;
11743;SDS011;5929;51.906;7.674;2022-11-15T12:07:20;2.53;;;0.80;;
11743;SDS011;5929;51.906;7.674;2022-11-15T12:09:51;4.32;;;0.88;;
11743;SDS011;5929;51.906;7.674;2022-11-15T12:12:25;4.72;;;1.00;;
11743;SDS011;5929;51.906;7.674;2022-11-15T12:14:59;2.85;;;1.00;;
11743;SDS011;5929;51.906;7.674;2022-11-15T12:17:29;3.03;;;0.80;;
11743;SDS011;5929;51.906;7.674;2022-11-15T12:19:59;4.15;;;1.23;;
11743;SDS011;5929;51.906;7.674;2022-11-15T12:22:33;3.55;;;0.80;;
11743;SDS011;5929;51.906;7.674;2022-11-15T12:25:08;2.97;;;1.00;;
11743;SDS011;5929;51.906;7.674;2022-11-15T12:27:46;3.92;;;0.80;;
11743;SDS011;5929;51.906;7.674;2022-11-15T12:30:17;4.70;;;1.00;;
11743;SDS011;5929;51.906;7.674;2022-11-15T12:32:49;2.78;;;1.00;;
11743;SDS011;5929;51.906;7.674;2022-11-15T12:35:32;4.50;;;0.90;;
11743;SDS011;5929;51.906;7.674;2022-11-15T12:38:02;3.53;;;1.05;;
11743;SDS011;5929;51.906;7.674;2022-11-15T12:40:30;3.10;;;1.10;;
11743;SDS011;5929;51.906;7.674;2022-11-15T12:43:03;3.22;;;1.10;;
11743;SDS011;5929;51.906;7.674;2022-11-15T12:45:45;4.63;;;1.00;;
11743;SDS011;5929;51.906;7.674;2022-11-15T12:57:31;3.38;;;1.00;;
11743;SDS011;5929;51.906;7.674;2022-11-15T13:06:04;3.95;;;0.80;;
11743;SDS011;5929;51.906;7.674;2022-11-15T13:08:56;4.85;;;0.95;;
11743;SDS011;5929;51.906;7.674;2022-11-15T13:11:42;4.75;;;1.00;;
11743;SDS011;5929;51.906;7.674;2022-11-15T13:20:00;2.47;;;0.75;;
11743;SDS011;5929;51.906;7.674;2022-11-15T13:22:38;4.38;;;1.17;;
11743;SDS011;5929;51.906;7.674;2022-11-15T13:25:33;4.50;;;0.90;;
11743;SDS011;5929;51.906;7.674;2022-11-15T13:28:19;5.53;;;0.93;;
11743;SDS011;5929;51.906;7.674;2022-11-15T13:30:49;5.70;;;1.10;;
11743;SDS011;5929;51.906;7.674;2022-11-15T13:33:19;3.33;;;0.82;;
11743;SDS011;5929;51.906;7.674;2022-11-15T13:35:48;2.40;;;0.85;;
11743;SDS011;5929;51.906;7.674;2022-11-15T13:38:18;3.25;;;1.10;;
11743;SDS011;5929;51.906;7.674;2022-11-15T13:40:52;2.80;;;0.90;;
11743;SDS011;5929;51.906;7.674;2022-11-15T13:43:25;3.58;;;1.00;;
11743;SDS011;5929;51.906;7.674;2022-11-15T13:46:04;3.33;;;1.02;;
11743;SDS011;5929;51.906;7.674;2022-11-15T13:48:32;2.22;;;0.80;;
11743;SDS011;5929;51.906;7.674;2022-11-15T13:50:59;3.63;;;0.80;;
11743;SDS011;5929;51.906;7.674;2022-11-15T13:53:29;3.55;;;0.93;;
11743;SDS011;5929;51.906;7.674;2022-11-15T13:55:59;4.05;;;1.10;;
11743;SDS011;5929;51.906;7.674;2022-11-15T13:58:28;2.45;;;0.70;;
11743;SDS011;5929;51.906;7.674;2022-11-15T14:00:59;3.25;;;0.90;;
11743;SDS011;5929;51.906;7.674;2022-11-15T14:03:28;4.45;;;0.88;;
11743;SDS011;5929;51.906;7.674;2022-11-15T14:06:07;2.28;;;0.68;;
11743;SDS011;5929;51.906;7.674;2022-11-15T14:08:37;3.08;;;0.70;;
11743;SDS011;5929;51.906;7.674;2022-11-15T18:59:58;9.82;;;5.65;;
11743;SDS011;5929;51.906;7.674;2022-11-15T19:02:25;9.38;;;5.80;;
11743;SDS011;5929;51.906;7.674;2022-11-15T19:04:52;8.93;;;5.05;;
11743;SDS011;5929;51.906;7.674;2022-11-15T19:07:19;9.05;;;3.92;;
11743;SDS011;5929;51.906;7.674;2022-11-15T19:09:47;6.65;;;3.45;;
11743;SDS011;5929;51.906;7.674;2022-11-15T19:12:14;6.72;;;3.53;;
11743;SDS011;5929;51.906;7.674;2022-11-15T19:14:41;10.30;;;5.72;;
11743;SDS011;5929;51.906;7.674;2022-11-15T19:17:10;7.75;;;4.80;;
11743;SDS011;5929;51.906;7.674;2022-11-15T19:19:37;10.55;;;5.53;;
11743;SDS011;5929;51.906;7.674;2022-11-15T19:22:04;11.20;;;5.68;;
11743;SDS011;5929;51.906;7.674;2022-11-15T19:24:33;8.82;;;5.05;;
11743;SDS011;5929;51.906;7.674;2022-11-15T19:27:00;9.05;;;4.85;;
11743;SDS011;5929;51.906;7.674;2022-11-15T19:29:27;9.93;;;4.82;;
11743;SDS011;5929;51.906;7.674;2022-11-15T19:31:53;7.45;;;4.03;;
11743;SDS011;5929;51.906;7.674;2022-11-15T19:34:24;7.13;;;3.63;;
11743;SDS011;5929;51.906;7.674;2022-11-15T19:36:51;5.53;;;3.30;;
11743;SDS011;5929;51.906;7.674;2022-11-15T19:39:18;5.43;;;3.17;;
11743;SDS011;5929;51.906;7.674;2022-11-15T19:41:45;6.35;;;3.70;;
11743;SDS011;5929;51.906;7.674;2022-11-15T19:44:12;7.10;;;3.90;;
11743;SDS011;5929;51.906;7.674;2022-11-15T19:46:39;5.75;;;3.65;;
11743;SDS011;5929;51.906;7.674;2022-11-15T19:49:07;7.30;;;3.85;;
11743;SDS011;5929;51.906;7.674;2022-11-15T19:51:36;7.10;;;3.65;;
11743;SDS011;5929;51.906;7.674;2022-11-15T19:54:06;5.53;;;3.53;;
11743;SDS011;5929;51.906;7.674;2022-11-15T19:56:36;6.53;;;3.92;;
11743;SDS011;5929;51.906;7.674;2022-11-15T19:59:04;8.13;;;3.40;;
11743;SDS011;5929;51.906;7.674;2022-11-15T20:01:32;8.45;;;3.97;;
11743;SDS011;5929;51.906;7.674;2022-11-15T20:04:02;5.88;;;3.70;;
11743;SDS011;5929;51.906;7.674;2022-11-15T20:06:30;7.88;;;3.88;;
11743;SDS011;5929;51.906;7.674;2022-11-15T20:08:59;7.25;;;3.67;;
11743;SDS011;5929;51.906;7.674;2022-11-15T20:11:26;6.75;;;3.63;;
11743;SDS011;5929;51.906;7.674;2022-11-15T20:13:54;6.85;;;4.22;;
11743;SDS011;5929;51.906;7.674;2022-11-15T20:16:22;7.05;;;3.72;;
11743;SDS011;5929;51.906;7.674;2022-11-15T20:18:49;8.30;;;4.40;;
11743;SDS011;5929;51.906;7.674;2022-11-15T20:21:17;8.48;;;4.10;;
11743;SDS011;5929;51.906;7.674;2022-11-15T20:23:44;7.30;;;4.32;;
11743;SDS011;5929;51.906;7.674;2022-11-15T20:26:13;6.35;;;3.70;;
11743;SDS011;5929;51.906;7.674;2022-11-15T20:28:42;5.75;;;3.65;;